sensor_id;sensor_type;location;lat;lon;timestamp;pressure;altitude;pressure_sealevel;temperature;humidity
77877;BME280;67251;50.844;7.978;2023-09-30T00:02:20;99659.75;;;9.50;100.00
77877;BME280;67251;50.844;7.978;2023-09-30T00:04:45;99645.78;;;9.40;100.00
77877;BME280;67251;50.844;7.978;2023-09-30T00:07:11;99647.31;;;9.34;100.00
77877;BME280;67251;50.844;7.978;2023-09-30T00:09:36;99658.16;;;9.33;100.00
77877;BME280;67251;50.844;7.978;2023-09-30T00:12:02;99653.50;;;9.27;100.00
77877;BME280;67251;50.844;7.978;2023-09-30T00:14:28;99660.22;;;9.23;100.00
77877;BME280;67251;50.844;7.978;2023-09-30T00:16:54;99663.41;;;9.18;100.00
77877;BME280;67251;50.844;7.978;2023-09-30T00:19:19;99661.56;;;9.18;100.00
77877;BME280;67251;50.844;7.978;2023-09-30T00:21:44;99659.91;;;9.09;100.00
77877;BME280;67251;50.844;7.978;2023-09-30T00:24:10;99664.44;;;9.01;100.00
77877;BME280;67251;50.844;7.978;2023-09-30T00:26:35;99666.94;;;9.02;100.00
77877;BME280;67251;50.844;7.978;2023-09-30T00:29:01;99670.97;;;8.90;100.00
77877;BME280;67251;50.844;7.978;2023-09-30T00:31:29;99682.00;;;8.79;100.00
77877;BME280;67251;50.844;7.978;2023-09-30T00:33:55;99678.34;;;8.63;100.00
77877;BME280;67251;50.844;7.978;2023-09-30T00:36:21;99680.50;;;8.76;100.00
77877;BME280;67251;50.844;7.978;2023-09-30T00:38:47;99683.00;;;8.78;100.00
77877;BME280;67251;50.844;7.978;2023-09-30T00:41:12;99692.69;;;8.70;100.00
77877;BME280;67251;50.844;7.978;2023-09-30T00:43:38;99696.03;;;8.73;100.00
77877;BME280;67251;50.844;7.978;2023-09-30T00:48:39;99706.34;;;8.59;100.00
77877;BME280;67251;50.844;7.978;2023-09-30T00:51:05;99720.56;;;8.52;100.00
77877;BME280;67251;50.844;7.978;2023-09-30T00:53:31;99721.03;;;8.55;100.00
77877;BME280;67251;50.844;7.978;2023-09-30T00:55:57;99710.03;;;8.58;100.00
77877;BME280;67251;50.844;7.978;2023-09-30T00:58:25;99706.53;;;8.58;100.00
77877;BME280;67251;50.844;7.978;2023-09-30T01:00:54;99710.03;;;8.50;100.00
77877;BME280;67251;50.844;7.978;2023-09-30T01:03:21;99709.88;;;8.52;100.00
77877;BME280;67251;50.844;7.978;2023-09-30T01:05:47;99702.03;;;8.50;100.00
77877;BME280;67251;50.844;7.978;2023-09-30T01:08:13;99702.19;;;8.49;100.00
77877;BME280;67251;50.844;7.978;2023-09-30T01:10:38;99710.00;;;8.42;100.00
77877;BME280;67251;50.844;7.978;2023-09-30T01:13:04;99700.00;;;8.36;100.00
77877;BME280;67251;50.844;7.978;2023-09-30T01:15:29;99691.63;;;8.23;100.00
77877;BME280;67251;50.844;7.978;2023-09-30T01:17:54;99697.47;;;8.10;100.00
77877;BME280;67251;50.844;7.978;2023-09-30T01:20:20;99680.94;;;7.98;100.00
77877;BME280;67251;50.844;7.978;2023-09-30T01:22:48;99683.94;;;7.95;100.00
77877;BME280;67251;50.844;7.978;2023-09-30T01:25:13;99699.44;;;8.00;100.00
77877;BME280;67251;50.844;7.978;2023-09-30T01:27:39;99709.59;;;8.04;100.00
77877;BME280;67251;50.844;7.978;2023-09-30T01:30:05;99710.59;;;8.03;100.00
77877;BME280;67251;50.844;7.978;2023-09-30T01:32:30;99706.78;;;7.98;100.00
77877;BME280;67251;50.844;7.978;2023-09-30T01:34:56;99712.91;;;7.90;100.00
77877;BME280;67251;50.844;7.978;2023-09-30T01:37:21;99708.56;;;7.89;100.00
77877;BME280;67251;50.844;7.978;2023-09-30T01:39:46;99705.63;;;8.00;100.00
77877;BME280;67251;50.844;7.978;2023-09-30T01:42:14;99719.94;;;8.07;100.00
77877;BME280;67251;50.844;7.978;2023-09-30T01:47:14;99738.09;;;7.96;100.00
77877;BME280;67251;50.844;7.978;2023-09-30T01:49:39;99746.22;;;7.94;100.00
77877;BME280;67251;50.844;7.978;2023-09-30T01:52:05;99742.06;;;7.91;100.00
77877;BME280;67251;50.844;7.978;2023-09-30T01:54:30;99746.22;;;7.86;100.00
77877;BME280;67251;50.844;7.978;2023-09-30T01:56:56;99741.38;;;7.81;100.00
77877;BME280;67251;50.844;7.978;2023-09-30T01:59:21;99722.91;;;7.88;100.00
77877;BME280;67251;50.844;7.978;2023-09-30T02:01:47;99707.28;;;8.01;100.00
77877;BME280;67251;50.844;7.978;2023-09-30T02:04:13;99708.13;;;8.10;100.00
77877;BME280;67251;50.844;7.978;2023-09-30T02:06:43;99715.94;;;8.03;100.00
77877;BME280;67251;50.844;7.978;2023-09-30T02:09:09;99721.97;;;8.05;100.00
77877;BME280;67251;50.844;7.978;2023-09-30T02:11:37;99732.91;;;7.94;100.00
77877;BME280;67251;50.844;7.978;2023-09-30T02:14:03;99734.09;;;7.91;100.00
77877;BME280;67251;50.844;7.978;2023-09-30T02:16:28;99734.03;;;7.83;100.00
77877;BME280;67251;50.844;7.978;2023-09-30T02:18:53;99730.34;;;7.76;100.00
77877;BME280;67251;50.844;7.978;2023-09-30T02:21:19;99723.69;;;7.72;100.00
77877;BME280;67251;50.844;7.978;2023-09-30T02:23:47;99726.72;;;7.85;100.00
77877;BME280;67251;50.844;7.978;2023-09-30T02:26:16;99720.75;;;7.91;100.00
77877;BME280;67251;50.844;7.978;2023-09-30T02:28:42;99725.56;;;7.88;100.00
77877;BME280;67251;50.844;7.978;2023-09-30T02:31:08;99735.56;;;7.86;100.00
77877;BME280;67251;50.844;7.978;2023-09-30T02:33:33;99739.06;;;7.86;100.00
77877;BME280;67251;50.844;7.978;2023-09-30T02:36:03;99741.69;;;7.78;100.00
77877;BME280;67251;50.844;7.978;2023-09-30T02:38:31;99745.97;;;7.63;100.00
77877;BME280;67251;50.844;7.978;2023-09-30T02:40:57;99746.56;;;7.49;100.00
77877;BME280;67251;50.844;7.978;2023-09-30T02:43:22;99744.22;;;7.46;100.00
77877;BME280;67251;50.844;7.978;2023-09-30T02:45:47;99739.38;;;7.41;100.00
77877;BME280;67251;50.844;7.978;2023-09-30T02:48:13;99749.47;;;7.29;100.00
77877;BME280;67251;50.844;7.978;2023-09-30T02:50:41;99750.91;;;7.24;100.00
77877;BME280;67251;50.844;7.978;2023-09-30T02:53:06;99740.56;;;7.47;100.00
77877;BME280;67251;50.844;7.978;2023-09-30T02:55:32;99729.19;;;7.79;100.00
77877;BME280;67251;50.844;7.978;2023-09-30T02:57:57;99727.72;;;7.84;100.00
77877;BME280;67251;50.844;7.978;2023-09-30T03:00:24;99722.72;;;7.81;100.00
77877;BME280;67251;50.844;7.978;2023-09-30T03:02:50;99723.88;;;7.79;100.00
77877;BME280;67251;50.844;7.978;2023-09-30T03:05:17;99743.53;;;7.78;100.00
77877;BME280;67251;50.844;7.978;2023-09-30T03:07:42;99756.69;;;7.79;100.00
77877;BME280;67251;50.844;7.978;2023-09-30T03:10:08;99747.06;;;7.94;100.00
77877;BME280;67251;50.844;7.978;2023-09-30T03:12:34;99742.28;;;8.06;100.00
77877;BME280;67251;50.844;7.978;2023-09-30T03:15:00;99752.13;;;8.14;100.00
77877;BME280;67251;50.844;7.978;2023-09-30T03:17:29;99760.97;;;8.23;100.00
77877;BME280;67251;50.844;7.978;2023-09-30T03:19:54;99766.63;;;8.28;100.00
77877;BME280;67251;50.844;7.978;2023-09-30T03:22:22;99761.66;;;8.33;100.00
77877;BME280;67251;50.844;7.978;2023-09-30T03:24:47;99772.34;;;8.41;100.00
77877;BME280;67251;50.844;7.978;2023-09-30T03:27:13;99762.84;;;8.47;100.00
77877;BME280;67251;50.844;7.978;2023-09-30T03:29:39;99757.03;;;8.51;100.00
77877;BME280;67251;50.844;7.978;2023-09-30T03:32:06;99753.22;;;8.54;100.00
77877;BME280;67251;50.844;7.978;2023-09-30T03:34:31;99755.38;;;8.58;100.00
77877;BME280;67251;50.844;7.978;2023-09-30T03:36:56;99753.88;;;8.64;100.00
77877;BME280;67251;50.844;7.978;2023-09-30T03:39:24;99758.06;;;8.66;100.00
77877;BME280;67251;50.844;7.978;2023-09-30T03:41:54;99746.88;;;8.71;100.00
77877;BME280;67251;50.844;7.978;2023-09-30T03:44:19;99745.88;;;8.72;100.00
77877;BME280;67251;50.844;7.978;2023-09-30T03:46:45;99738.53;;;8.74;100.00
77877;BME280;67251;50.844;7.978;2023-09-30T03:49:10;99743.53;;;8.77;100.00
77877;BME280;67251;50.844;7.978;2023-09-30T03:51:35;99752.06;;;8.81;100.00
77877;BME280;67251;50.844;7.978;2023-09-30T03:54:02;99758.88;;;8.83;100.00
77877;BME280;67251;50.844;7.978;2023-09-30T03:56:28;99769.41;;;8.85;100.00
77877;BME280;67251;50.844;7.978;2023-09-30T03:58:53;99775.72;;;8.84;100.00
77877;BME280;67251;50.844;7.978;2023-09-30T04:01:19;99775.25;;;8.80;100.00
77877;BME280;67251;50.844;7.978;2023-09-30T04:03:45;99766.56;;;8.78;100.00
77877;BME280;67251;50.844;7.978;2023-09-30T04:06:16;99773.91;;;8.76;100.00
77877;BME280;67251;50.844;7.978;2023-09-30T04:08:42;99785.22;;;8.78;100.00
77877;BME280;67251;50.844;7.978;2023-09-30T04:11:09;99782.56;;;8.78;100.00
77877;BME280;67251;50.844;7.978;2023-09-30T04:13:35;99771.72;;;8.80;100.00
77877;BME280;67251;50.844;7.978;2023-09-30T04:16:01;99775.38;;;8.79;100.00
77877;BME280;67251;50.844;7.978;2023-09-30T04:18:28;99772.56;;;8.80;100.00
77877;BME280;67251;50.844;7.978;2023-09-30T04:20:53;99767.88;;;8.82;100.00
77877;BME280;67251;50.844;7.978;2023-09-30T04:23:19;99769.41;;;8.85;100.00
77877;BME280;67251;50.844;7.978;2023-09-30T04:25:47;99755.06;;;8.86;100.00
77877;BME280;67251;50.844;7.978;2023-09-30T04:28:13;99759.22;;;8.88;100.00
77877;BME280;67251;50.844;7.978;2023-09-30T04:30:39;99759.72;;;8.92;100.00
77877;BME280;67251;50.844;7.978;2023-09-30T04:33:05;99756.03;;;8.93;100.00
77877;BME280;67251;50.844;7.978;2023-09-30T04:35:30;99772.56;;;8.96;100.00
77877;BME280;67251;50.844;7.978;2023-09-30T04:37:56;99764.72;;;8.95;100.00
77877;BME280;67251;50.844;7.978;2023-09-30T04:40:26;99767.72;;;8.92;100.00
77877;BME280;67251;50.844;7.978;2023-09-30T04:42:51;99763.38;;;8.91;100.00
77877;BME280;67251;50.844;7.978;2023-09-30T04:45:19;99758.06;;;8.91;100.00
77877;BME280;67251;50.844;7.978;2023-09-30T04:47:49;99755.19;;;8.92;100.00
77877;BME280;67251;50.844;7.978;2023-09-30T04:50:15;99765.72;;;8.94;100.00
77877;BME280;67251;50.844;7.978;2023-09-30T04:52:41;99774.06;;;8.91;100.00
77877;BME280;67251;50.844;7.978;2023-09-30T04:55:07;99772.41;;;8.90;100.00
77877;BME280;67251;50.844;7.978;2023-09-30T04:57:33;99769.75;;;8.90;100.00
77877;BME280;67251;50.844;7.978;2023-09-30T04:59:59;99779.41;;;8.91;100.00
77877;BME280;67251;50.844;7.978;2023-09-30T05:02:25;99768.91;;;8.89;100.00
77877;BME280;67251;50.844;7.978;2023-09-30T05:04:51;99778.06;;;8.87;100.00
77877;BME280;67251;50.844;7.978;2023-09-30T05:07:17;99784.22;;;8.87;100.00
77877;BME280;67251;50.844;7.978;2023-09-30T05:09:42;99779.72;;;8.88;100.00
77877;BME280;67251;50.844;7.978;2023-09-30T05:12:08;99781.38;;;8.89;100.00
77877;BME280;67251;50.844;7.978;2023-09-30T05:14:35;99790.25;;;8.89;100.00
77877;BME280;67251;50.844;7.978;2023-09-30T05:17:02;99795.41;;;8.91;100.00
77877;BME280;67251;50.844;7.978;2023-09-30T05:19:29;99798.09;;;8.91;100.00
77877;BME280;67251;50.844;7.978;2023-09-30T05:21:57;99796.25;;;8.91;100.00
77877;BME280;67251;50.844;7.978;2023-09-30T05:24:22;99799.56;;;8.93;100.00
77877;BME280;67251;50.844;7.978;2023-09-30T05:26:47;99802.75;;;8.97;100.00
77877;BME280;67251;50.844;7.978;2023-09-30T05:29:13;99796.25;;;9.00;100.00
77877;BME280;67251;50.844;7.978;2023-09-30T05:31:38;99793.22;;;9.03;100.00
77877;BME280;67251;50.844;7.978;2023-09-30T05:34:04;99797.59;;;9.04;100.00
77877;BME280;67251;50.844;7.978;2023-09-30T05:36:29;99801.91;;;9.05;100.00
77877;BME280;67251;50.844;7.978;2023-09-30T05:38:55;99801.75;;;9.06;100.00
77877;BME280;67251;50.844;7.978;2023-09-30T05:41:20;99814.25;;;9.06;100.00
77877;BME280;67251;50.844;7.978;2023-09-30T05:43:46;99813.44;;;9.05;100.00
77877;BME280;67251;50.844;7.978;2023-09-30T05:46:12;99815.41;;;9.03;100.00
77877;BME280;67251;50.844;7.978;2023-09-30T05:48:38;99820.75;;;9.03;100.00
77877;BME280;67251;50.844;7.978;2023-09-30T05:51:05;99814.59;;;8.94;100.00
77877;BME280;67251;50.844;7.978;2023-09-30T05:53:31;99819.09;;;8.86;100.00
77877;BME280;67251;50.844;7.978;2023-09-30T05:55:58;99821.78;;;8.86;100.00
77877;BME280;67251;50.844;7.978;2023-09-30T05:58:25;99831.25;;;8.88;100.00
77877;BME280;67251;50.844;7.978;2023-09-30T06:00:51;99819.94;;;8.86;100.00
77877;BME280;67251;50.844;7.978;2023-09-30T06:03:17;99821.91;;;8.84;100.00
77877;BME280;67251;50.844;7.978;2023-09-30T06:05:42;99832.28;;;8.87;100.00
77877;BME280;67251;50.844;7.978;2023-09-30T06:08:09;99828.78;;;8.87;100.00
77877;BME280;67251;50.844;7.978;2023-09-30T06:10:36;99831.44;;;8.87;100.00
77877;BME280;67251;50.844;7.978;2023-09-30T06:13:07;99839.94;;;8.82;100.00
77877;BME280;67251;50.844;7.978;2023-09-30T06:15:37;99836.09;;;8.77;100.00
77877;BME280;67251;50.844;7.978;2023-09-30T06:18:02;99848.75;;;8.75;100.00
77877;BME280;67251;50.844;7.978;2023-09-30T06:20:29;99842.94;;;8.79;100.00
77877;BME280;67251;50.844;7.978;2023-09-30T06:22:56;99843.78;;;8.88;100.00
77877;BME280;67251;50.844;7.978;2023-09-30T06:25:22;99842.63;;;8.99;100.00
77877;BME280;67251;50.844;7.978;2023-09-30T06:27:49;99835.94;;;9.03;100.00
77877;BME280;67251;50.844;7.978;2023-09-30T06:30:15;99835.13;;;9.02;100.00
77877;BME280;67251;50.844;7.978;2023-09-30T06:32:42;99839.94;;;9.07;100.00
77877;BME280;67251;50.844;7.978;2023-09-30T06:35:08;99838.78;;;9.09;100.00
77877;BME280;67251;50.844;7.978;2023-09-30T06:37:36;99847.47;;;9.11;100.00
77877;BME280;67251;50.844;7.978;2023-09-30T06:40:04;99845.81;;;9.18;100.00
77877;BME280;67251;50.844;7.978;2023-09-30T06:42:30;99841.63;;;9.24;100.00
77877;BME280;67251;50.844;7.978;2023-09-30T06:44:56;99847.78;;;9.25;100.00
77877;BME280;67251;50.844;7.978;2023-09-30T06:47:21;99854.66;;;9.27;100.00
77877;BME280;67251;50.844;7.978;2023-09-30T06:49:47;99857.66;;;9.24;100.00
77877;BME280;67251;50.844;7.978;2023-09-30T06:52:13;99859.81;;;9.29;100.00
77877;BME280;67251;50.844;7.978;2023-09-30T06:54:38;99857.97;;;9.37;100.00
77877;BME280;67251;50.844;7.978;2023-09-30T06:57:04;99855.13;;;9.47;100.00
77877;BME280;67251;50.844;7.978;2023-09-30T06:59:29;99862.63;;;9.52;100.00
77877;BME280;67251;50.844;7.978;2023-09-30T07:01:57;99870.78;;;9.58;100.00
77877;BME280;67251;50.844;7.978;2023-09-30T07:04:22;99869.97;;;9.58;100.00
77877;BME280;67251;50.844;7.978;2023-09-30T07:06:47;99870.78;;;9.58;100.00
77877;BME280;67251;50.844;7.978;2023-09-30T07:09:13;99869.47;;;9.54;100.00
77877;BME280;67251;50.844;7.978;2023-09-30T07:11:38;99866.28;;;9.59;100.00
77877;BME280;67251;50.844;7.978;2023-09-30T07:14:04;99864.94;;;9.63;100.00
77877;BME280;67251;50.844;7.978;2023-09-30T07:16:29;99868.44;;;9.71;100.00
77877;BME280;67251;50.844;7.978;2023-09-30T07:18:55;99877.09;;;9.73;100.00
77877;BME280;67251;50.844;7.978;2023-09-30T07:21:20;99886.09;;;9.89;100.00
77877;BME280;67251;50.844;7.978;2023-09-30T07:23:46;99878.03;;;9.97;100.00
77877;BME280;67251;50.844;7.978;2023-09-30T07:26:13;99883.25;;;9.98;100.00
77877;BME280;67251;50.844;7.978;2023-09-30T07:28:39;99893.88;;;10.07;100.00
77877;BME280;67251;50.844;7.978;2023-09-30T07:31:05;99891.56;;;10.12;100.00
77877;BME280;67251;50.844;7.978;2023-09-30T07:33:30;99889.34;;;10.15;100.00
77877;BME280;67251;50.844;7.978;2023-09-30T07:35:56;99889.00;;;10.18;100.00
77877;BME280;67251;50.844;7.978;2023-09-30T07:38:22;99887.66;;;10.22;100.00
77877;BME280;67251;50.844;7.978;2023-09-30T07:40:48;99879.88;;;10.44;100.00
77877;BME280;67251;50.844;7.978;2023-09-30T07:43:14;99881.97;;;10.65;100.00
77877;BME280;67251;50.844;7.978;2023-09-30T07:45:39;99889.13;;;10.95;100.00
77877;BME280;67251;50.844;7.978;2023-09-30T07:48:07;99886.75;;;11.00;100.00
77877;BME280;67251;50.844;7.978;2023-09-30T07:50:34;99900.91;;;11.09;100.00
77877;BME280;67251;50.844;7.978;2023-09-30T07:53:00;99893.13;;;11.22;100.00
77877;BME280;67251;50.844;7.978;2023-09-30T07:55:26;99884.91;;;11.24;100.00
77877;BME280;67251;50.844;7.978;2023-09-30T07:57:51;99884.91;;;11.24;100.00
77877;BME280;67251;50.844;7.978;2023-09-30T08:00:17;99887.50;;;11.32;100.00
77877;BME280;67251;50.844;7.978;2023-09-30T08:02:43;99895.47;;;11.78;98.58
77877;BME280;67251;50.844;7.978;2023-09-30T08:05:09;99897.28;;;12.15;95.94
77877;BME280;67251;50.844;7.978;2023-09-30T08:07:35;99906.25;;;12.22;91.72
77877;BME280;67251;50.844;7.978;2023-09-30T08:10:01;99911.59;;;12.52;92.44
77877;BME280;67251;50.844;7.978;2023-09-30T08:12:29;99902.06;;;12.86;90.72
77877;BME280;67251;50.844;7.978;2023-09-30T08:14:54;99905.00;;;13.12;88.62
77877;BME280;67251;50.844;7.978;2023-09-30T08:17:20;99909.53;;;13.26;86.73
77877;BME280;67251;50.844;7.978;2023-09-30T08:19:45;99916.75;;;13.26;84.28
77877;BME280;67251;50.844;7.978;2023-09-30T08:22:13;99920.97;;;13.35;85.95
77877;BME280;67251;50.844;7.978;2023-09-30T08:24:38;99917.56;;;13.69;83.72
77877;BME280;67251;50.844;7.978;2023-09-30T08:27:03;99916.69;;;13.41;82.09
77877;BME280;67251;50.844;7.978;2023-09-30T08:29:29;99923.31;;;12.81;85.52
77877;BME280;67251;50.844;7.978;2023-09-30T08:31:54;99922.03;;;12.62;87.96
77877;BME280;67251;50.844;7.978;2023-09-30T08:34:19;99921.75;;;12.71;87.81
77877;BME280;67251;50.844;7.978;2023-09-30T08:36:46;99922.91;;;12.47;89.58
77877;BME280;67251;50.844;7.978;2023-09-30T08:39:11;99934.06;;;12.51;89.68
77877;BME280;67251;50.844;7.978;2023-09-30T08:41:37;99938.38;;;12.82;88.48
77877;BME280;67251;50.844;7.978;2023-09-30T08:44:04;99935.03;;;12.94;87.27
77877;BME280;67251;50.844;7.978;2023-09-30T08:46:31;99932.13;;;13.32;85.53
77877;BME280;67251;50.844;7.978;2023-09-30T08:48:58;99938.63;;;13.66;83.28
77877;BME280;67251;50.844;7.978;2023-09-30T08:51:25;99941.50;;;13.64;82.73
77877;BME280;67251;50.844;7.978;2023-09-30T08:53:52;99949.22;;;13.95;81.02
77877;BME280;67251;50.844;7.978;2023-09-30T08:56:19;99945.47;;;13.96;80.18
77877;BME280;67251;50.844;7.978;2023-09-30T08:58:46;99946.91;;;13.92;79.90
77877;BME280;67251;50.844;7.978;2023-09-30T09:01:11;99956.66;;;14.21;79.65
77877;BME280;67251;50.844;7.978;2023-09-30T09:03:38;99956.03;;;14.54;77.23
77877;BME280;67251;50.844;7.978;2023-09-30T09:06:04;99946.44;;;14.93;75.33
77877;BME280;67251;50.844;7.978;2023-09-30T09:08:29;99946.03;;;14.96;73.94
77877;BME280;67251;50.844;7.978;2023-09-30T09:10:56;99950.41;;;14.97;73.46
77877;BME280;67251;50.844;7.978;2023-09-30T09:13:22;99957.84;;;14.95;74.42
77877;BME280;67251;50.844;7.978;2023-09-30T09:15:48;99951.88;;;15.19;74.01
77877;BME280;67251;50.844;7.978;2023-09-30T09:18:31;99944.09;;;15.71;73.15
77877;BME280;67251;50.844;7.978;2023-09-30T09:21:15;99958.84;;;15.81;71.29
77877;BME280;67251;50.844;7.978;2023-09-30T09:23:46;99955.31;;;15.74;70.44
77877;BME280;67251;50.844;7.978;2023-09-30T09:28:40;99963.28;;;15.15;73.48
77877;BME280;67251;50.844;7.978;2023-09-30T09:31:20;99951.31;;;15.37;71.64
77877;BME280;67251;50.844;7.978;2023-09-30T09:33:47;99950.66;;;15.28;71.90
77877;BME280;67251;50.844;7.978;2023-09-30T09:36:12;99941.06;;;14.93;73.18
77877;BME280;67251;50.844;7.978;2023-09-30T09:38:49;99927.88;;;15.38;72.38
77877;BME280;67251;50.844;7.978;2023-09-30T09:41:19;99920.19;;;15.48;72.31
77877;BME280;67251;50.844;7.978;2023-09-30T09:43:45;99921.25;;;16.06;70.04
77877;BME280;67251;50.844;7.978;2023-09-30T09:46:13;99904.50;;;17.32;64.88
77877;BME280;67251;50.844;7.978;2023-09-30T09:48:39;99905.56;;;17.81;62.47
77877;BME280;67251;50.844;7.978;2023-09-30T09:51:04;99908.66;;;17.60;61.98
77877;BME280;67251;50.844;7.978;2023-09-30T09:53:36;99909.84;;;17.39;63.18
77877;BME280;67251;50.844;7.978;2023-09-30T09:56:03;99906.84;;;18.59;60.99
77877;BME280;67251;50.844;7.978;2023-09-30T09:58:32;99903.66;;;20.58;54.80
77877;BME280;67251;50.844;7.978;2023-09-30T10:01:00;99895.41;;;21.38;51.29
77877;BME280;67251;50.844;7.978;2023-09-30T10:03:26;99907.72;;;20.20;52.01
77877;BME280;67251;50.844;7.978;2023-09-30T10:05:51;99915.75;;;20.15;51.67
77877;BME280;67251;50.844;7.978;2023-09-30T10:08:20;99910.03;;;20.92;51.06
77877;BME280;67251;50.844;7.978;2023-09-30T10:10:47;99906.47;;;21.32;48.94
77877;BME280;67251;50.844;7.978;2023-09-30T10:19:14;99904.00;;;21.18;49.04
77877;BME280;67251;50.844;7.978;2023-09-30T10:25:00;99906.53;;;19.92;51.11
77877;BME280;67251;50.844;7.978;2023-09-30T10:35:19;99890.38;;;18.90;54.05
77877;BME280;67251;50.844;7.978;2023-09-30T10:37:45;99906.34;;;18.99;55.39
77877;BME280;67251;50.844;7.978;2023-09-30T10:40:27;99908.06;;;19.88;52.13
77877;BME280;67251;50.844;7.978;2023-09-30T10:42:53;99902.16;;;20.79;49.26
77877;BME280;67251;50.844;7.978;2023-09-30T10:50:59;99907.19;;;22.11;44.36
77877;BME280;67251;50.844;7.978;2023-09-30T10:53:27;99904.47;;;22.11;44.21
77877;BME280;67251;50.844;7.978;2023-09-30T10:55:56;99893.28;;;22.52;44.77
77877;BME280;67251;50.844;7.978;2023-09-30T10:58:48;99893.66;;;22.60;44.78
77877;BME280;67251;50.844;7.978;2023-09-30T11:01:18;99899.06;;;20.47;45.11
77877;BME280;67251;50.844;7.978;2023-09-30T11:03:45;99895.50;;;20.58;46.01
77877;BME280;67251;50.844;7.978;2023-09-30T11:06:15;99890.63;;;20.88;46.26
77877;BME280;67251;50.844;7.978;2023-09-30T11:08:59;99878.72;;;21.35;44.09
77877;BME280;67251;50.844;7.978;2023-09-30T11:11:45;99878.97;;;21.67;44.26
77877;BME280;67251;50.844;7.978;2023-09-30T11:14:17;99887.09;;;22.01;45.47
77877;BME280;67251;50.844;7.978;2023-09-30T11:16:43;99875.38;;;22.00;44.64
77877;BME280;67251;50.844;7.978;2023-09-30T11:19:09;99879.72;;;21.79;43.57
77877;BME280;67251;50.844;7.978;2023-09-30T11:21:35;99891.19;;;21.81;44.31
77877;BME280;67251;50.844;7.978;2023-09-30T11:24:01;99890.19;;;21.54;42.24
77877;BME280;67251;50.844;7.978;2023-09-30T11:26:30;99888.31;;;21.37;41.20
77877;BME280;67251;50.844;7.978;2023-09-30T11:29:06;99876.91;;;21.40;41.89
77877;BME280;67251;50.844;7.978;2023-09-30T11:31:32;99881.03;;;20.69;41.56
77877;BME280;67251;50.844;7.978;2023-09-30T11:33:59;99872.06;;;19.81;45.32
77877;BME280;67251;50.844;7.978;2023-09-30T11:36:29;99867.59;;;19.33;51.51
77877;BME280;67251;50.844;7.978;2023-09-30T11:38:55;99867.69;;;19.80;50.04
77877;BME280;67251;50.844;7.978;2023-09-30T11:41:21;99865.00;;;20.32;49.19
77877;BME280;67251;50.844;7.978;2023-09-30T11:44:03;99866.69;;;20.33;42.78
77877;BME280;67251;50.844;7.978;2023-09-30T11:46:51;99861.22;;;20.57;44.33
77877;BME280;67251;50.844;7.978;2023-09-30T11:51:55;99850.47;;;19.86;47.77
77877;BME280;67251;50.844;7.978;2023-09-30T11:54:22;99844.41;;;20.08;46.68
77877;BME280;67251;50.844;7.978;2023-09-30T11:56:48;99845.22;;;20.20;44.76
77877;BME280;67251;50.844;7.978;2023-09-30T11:59:15;99846.28;;;20.19;43.27
77877;BME280;67251;50.844;7.978;2023-09-30T12:01:41;99837.66;;;20.10;44.75
77877;BME280;67251;50.844;7.978;2023-09-30T12:04:06;99841.81;;;20.01;45.22
77877;BME280;67251;50.844;7.978;2023-09-30T12:06:32;99846.53;;;20.06;42.68
77877;BME280;67251;50.844;7.978;2023-09-30T12:08:59;99849.13;;;19.89;43.22
77877;BME280;67251;50.844;7.978;2023-09-30T12:11:24;99839.78;;;19.50;43.43
77877;BME280;67251;50.844;7.978;2023-09-30T12:13:51;99837.66;;;19.52;43.22
77877;BME280;67251;50.844;7.978;2023-09-30T12:16:17;99839.81;;;19.61;42.46
77877;BME280;67251;50.844;7.978;2023-09-30T12:18:42;99845.50;;;19.83;43.40
77877;BME280;67251;50.844;7.978;2023-09-30T12:21:12;99852.69;;;20.01;43.82
77877;BME280;67251;50.844;7.978;2023-09-30T12:23:39;99839.63;;;20.27;42.22
77877;BME280;67251;50.844;7.978;2023-09-30T12:26:04;99847.97;;;19.61;44.48
77877;BME280;67251;50.844;7.978;2023-09-30T12:28:33;99843.91;;;19.52;46.93
77877;BME280;67251;50.844;7.978;2023-09-30T12:30:59;99839.44;;;19.34;45.19
77877;BME280;67251;50.844;7.978;2023-09-30T12:33:27;99837.28;;;19.25;47.08
77877;BME280;67251;50.844;7.978;2023-09-30T12:35:53;99841.72;;;19.61;46.59
77877;BME280;67251;50.844;7.978;2023-09-30T12:38:18;99843.13;;;19.75;44.67
77877;BME280;67251;50.844;7.978;2023-09-30T12:40:44;99841.69;;;19.84;46.00
77877;BME280;67251;50.844;7.978;2023-09-30T12:43:09;99851.38;;;20.04;46.44
77877;BME280;67251;50.844;7.978;2023-09-30T12:45:35;99833.78;;;19.95;44.61
77877;BME280;67251;50.844;7.978;2023-09-30T12:48:02;99834.03;;;19.58;44.37
77877;BME280;67251;50.844;7.978;2023-09-30T12:50:27;99833.19;;;19.57;45.34
77877;BME280;67251;50.844;7.978;2023-09-30T12:52:52;99834.13;;;19.39;44.39
77877;BME280;67251;50.844;7.978;2023-09-30T12:55:18;99822.06;;;19.24;45.25
77877;BME280;67251;50.844;7.978;2023-09-30T12:57:43;99820.91;;;19.31;44.51
77877;BME280;67251;50.844;7.978;2023-09-30T13:00:09;99816.16;;;19.27;45.61
77877;BME280;67251;50.844;7.978;2023-09-30T13:02:35;99814.03;;;19.29;45.69
77877;BME280;67251;50.844;7.978;2023-09-30T13:05:00;99805.56;;;19.25;43.08
77877;BME280;67251;50.844;7.978;2023-09-30T13:07:26;99792.56;;;19.27;43.35
77877;BME280;67251;50.844;7.978;2023-09-30T13:09:51;99788.94;;;19.45;44.66
77877;BME280;67251;50.844;7.978;2023-09-30T13:12:17;99785.63;;;19.55;45.11
77877;BME280;67251;50.844;7.978;2023-09-30T13:14:42;99799.91;;;19.50;44.65
77877;BME280;67251;50.844;7.978;2023-09-30T13:17:07;99813.34;;;19.57;43.77
77877;BME280;67251;50.844;7.978;2023-09-30T13:19:33;99820.34;;;19.53;45.92
77877;BME280;67251;50.844;7.978;2023-09-30T13:21:58;99812.75;;;19.55;46.20
77877;BME280;67251;50.844;7.978;2023-09-30T13:24:24;99813.22;;;19.52;44.21
77877;BME280;67251;50.844;7.978;2023-09-30T13:26:49;99800.31;;;19.00;43.60
77877;BME280;67251;50.844;7.978;2023-09-30T13:29:17;99801.84;;;18.96;45.33
77877;BME280;67251;50.844;7.978;2023-09-30T13:31:43;99805.59;;;18.83;46.34